Nearby METAR Reports

 

LFSI - St. Dizier/Robin, France
Distance from station: SO 26km
Mise à jour: 27/05/2020 13:00
clair
clair
 Wind from NE
Vent: NE 15 km/h
Température: 22°C
Point de rosée: 6°C
Humidité: 36%
Baromètre: 1032 hPa
Résumé: clair
Visibility: greater than 10 km
2020/05/27 11:00 LFSI 271100Z AUTO 05008KT 360V110 CAVOK 22/06 Q1032
LFSO - Nancy/Ochey (faf, France
Distance from station: ESE 62km
Mise à jour: 27/05/2020 13:00
clair
clair
 Wind from NE
Vent: NE 17 km/h
Température: 20°C
Point de rosée: 6°C
Humidité: 40%
Baromètre: 1032 hPa
Résumé: clair
Visibility: greater than 10 km
2020/05/27 11:00 LFSO 271100Z AUTO 05009KT 010V080 CAVOK 20/06 Q1032 NOSIG
LFOK - Chalons/Vatry Fa, France
Distance from station: O 73km
Mise à jour: 27/05/2020 13:00
clair
clair
 Wind from NE
Vent: NE 22 km/h
Température: 22°C
Point de rosée: 9°C
Humidité: 44%
Baromètre: 1033 hPa
Résumé: clair
Visibility: greater than 10 km
2020/05/27 11:00 LFOK 271100Z AUTO 04012KT 010V080 CAVOK 22/09 Q1033 NOSIG
 
LFSN - Nancy/Essey, France
Distance from station: E 77km
Mise à jour: 27/05/2020 13:00
clair
clair
 Wind from ENE
Vent: ENE 15 km/h
Température: 21°C
Point de rosée: 7°C
Humidité: 40%
Baromètre: 1032 hPa
Résumé: clair
Visibility: greater than 10 km
2020/05/27 11:00 LFSN 271100Z AUTO 06008KT 030V100 CAVOK 21/07 Q1032
LFSG - Epinal/Mirecourt, France
Distance from station: SE 81km
Mise à jour: 27/05/2020 13:00
clair
clair
 Wind from NNE
Vent: NNE 22 km/h
Température: 20°C
Point de rosée: 6°C
Humidité: 40%
Baromètre: 1032 hPa
Résumé: clair
Visibility: greater than 10 km
2020/05/27 11:00 LFSG 271100Z AUTO 03012KT 360V060 CAVOK 20/06 Q1032
LFJL - Metz-Nancy-Lorra, France
Distance from station: ENE 82km
Mise à jour: 27/05/2020 13:00
clair
clair
 Wind from ENE
Vent: ENE 15 km/h
Température: 21°C
Point de rosée: 7°C
Humidité: 40%
Baromètre: 1032 hPa
Résumé: clair
Visibility: greater than 10 km
2020/05/27 11:00 LFJL 271100Z AUTO 06008KT 020V100 CAVOK 21/07 Q1032 NOSIG
 
LFQA - Reims/Prunay, France
Distance from station: ONO 89km
Mise à jour: 27/05/2020 13:00
clair
clair
 Wind from ENE
Vent: ENE 9 km/h
Température: 22°C
Point de rosée: 10°C
Humidité: 47%
Baromètre: 1033 hPa
Résumé: clair
Visibility: greater than 10 km
2020/05/27 11:00 LFQA 271100Z AUTO 06005KT 340V120 CAVOK 22/10 Q1033
LFQB - Troyes/Barberey, France
Distance from station: OSO 99km
Mise à jour: 27/05/2020 13:00
clair
clair
 Wind from NE
Vent: NE 20 km/h
Température: 22°C
Point de rosée: 9°C
Humidité: 44%
Baromètre: 1032 hPa
Résumé: clair
Visibility: greater than 10 km
2020/05/27 11:00 LFQB 271100Z AUTO 04011KT 010V080 CAVOK 22/09 Q1032